Time;durP1;ratioP1;P1;durP2;ratioP2;P2;SDS_P1;SDS_P2;PMS_P1;PMS_P2;Temp;Humidity;BMP_temperature;BMP_pressure;BME280_temperature;BME280_humidity;BME280_pressure;Samples;Min_cycle;Max_cycle;Signal;HPM_P1;HPM_P2
2021/05/22 00:01:22;;;;;;;2.45;1.40;;;;;;;15.72;50.37;99502.14;125620;1096;103088;-84
2021/05/22 00:03:54;;;;;;;3.08;1.30;;;;;;;15.75;50.23;99506.46;125525;1101;102988;-85
2021/05/22 00:06:23;;;;;;;3.80;1.30;;;;;;;15.78;50.39;99507.14;125574;1101;103333;-87
2021/05/22 00:08:50;;;;;;;1.40;1.15;;;;;;;15.80;50.42;99502.55;125242;1096;103152;-85
2021/05/22 00:11:17;;;;;;;3.37;1.70;;;;;;;15.82;51.05;99507.82;125565;1101;103085;-82
2021/05/22 00:13:45;;;;;;;2.45;1.98;;;;;;;15.80;50.88;99497.19;125756;1102;103179;-81
2021/05/22 00:16:12;;;;;;;2.60;2.17;;;;;;;15.76;51.15;99498.30;125245;1101;103447;-83
2021/05/22 00:18:42;;;;;;;2.20;2.00;;;;;;;15.71;51.50;99489.67;125882;1101;102990;-89
2021/05/22 00:21:10;;;;;;;2.40;1.50;;;;;;;15.67;51.85;99488.14;125646;1104;103139;-81
2021/05/22 00:23:38;;;;;;;2.00;1.40;;;;;;;15.58;52.10;99483.34;125696;1101;103211;-81
2021/05/22 00:26:05;;;;;;;6.47;1.93;;;;;;;15.57;52.04;99482.48;125593;1101;101940;-84
2021/05/22 00:28:35;;;;;;;4.30;1.98;;;;;;;15.57;52.49;99481.61;125111;1102;103219;-83
2021/05/22 00:31:13;;;;;;;2.63;1.73;;;;;;;15.50;52.73;99489.17;125103;1103;103043;-83
2021/05/22 00:33:41;;;;;;;3.03;1.93;;;;;;;15.48;52.75;99483.91;125393;1101;103185;-81
2021/05/22 00:36:08;;;;;;;2.40;1.50;;;;;;;15.44;53.06;99493.10;125709;1101;103212;-89
2021/05/22 00:38:37;;;;;;;2.73;1.50;;;;;;;15.41;53.41;99495.10;125368;1101;103180;-81
2021/05/22 00:41:04;;;;;;;1.77;1.37;;;;;;;15.34;53.50;99505.34;124994;1101;103328;-83
2021/05/22 00:43:31;;;;;;;1.98;1.18;;;;;;;15.29;53.71;99508.32;125714;1101;103043;-81
2021/05/22 00:45:59;;;;;;;1.30;1.10;;;;;;;15.18;54.08;99508.97;124672;1096;102972;-81
2021/05/22 00:48:29;;;;;;;2.75;1.00;;;;;;;15.16;54.33;99508.18;125106;1096;103202;-84
2021/05/22 00:50:57;;;;;;;1.33;1.20;;;;;;;15.17;54.18;99504.55;125409;1101;103177;-83
2021/05/22 00:53:24;;;;;;;1.80;1.20;;;;;;;15.18;54.08;99502.72;125534;1096;103203;-80
2021/05/22 00:55:55;;;;;;;3.10;1.43;;;;;;;15.14;54.18;99520.84;124735;1097;103526;-84
2021/05/22 00:58:23;;;;;;;1.70;1.20;;;;;;;15.11;54.47;99506.73;125551;1101;103110;-83
2021/05/22 01:00:52;;;;;;;2.33;1.20;;;;;;;15.12;54.88;99516.52;125441;1101;103173;-85
2021/05/22 01:03:41;;;;;;;2.00;0.93;;;;;;;15.08;54.63;99517.66;125367;1101;103176;-86
2021/05/22 01:06:27;;;;;;;2.08;1.88;;;;;;;15.07;55.00;99522.14;125231;1101;103199;-82
2021/05/22 01:09:10;;;;;;;3.17;1.33;;;;;;;14.99;55.20;99519.91;125500;1101;103515;-85
2021/05/22 01:11:43;;;;;;;3.47;1.30;;;;;;;14.94;55.18;99526.50;125613;1101;103219;-86
2021/05/22 01:14:12;;;;;;;1.60;1.50;;;;;;;14.93;55.60;99528.33;125590;1101;103337;-79
2021/05/22 01:16:41;;;;;;;3.78;1.10;;;;;;;14.91;55.69;99519.49;125435;1101;103167;-87
2021/05/22 01:19:30;;;;;;;2.30;1.10;;;;;;;14.95;55.59;99521.04;125819;1096;103099;-88
2021/05/22 01:21:58;;;;;;;1.68;1.00;;;;;;;14.96;55.58;99521.92;125506;1096;103175;-87
2021/05/22 01:24:27;;;;;;;1.28;1.08;;;;;;;14.96;55.63;99524.61;125535;1101;103296;-84
2021/05/22 01:26:55;;;;;;;1.60;0.95;;;;;;;14.87;56.12;99517.95;124758;1101;103477;-85
2021/05/22 01:29:23;;;;;;;1.50;1.30;;;;;;;14.79;56.51;99514.86;124996;1102;103160;-83
2021/05/22 01:31:50;;;;;;;1.50;1.40;;;;;;;14.71;56.50;99516.18;125183;1104;103178;-86
2021/05/22 01:34:18;;;;;;;2.65;1.40;;;;;;;14.74;56.63;99509.78;125151;1096;103307;-85
2021/05/22 01:36:45;;;;;;;1.33;1.23;;;;;;;14.68;57.13;99504.77;125440;1096;103241;-81
2021/05/22 01:39:13;;;;;;;2.45;1.00;;;;;;;14.61;57.21;99509.58;125395;1096;103088;-82
2021/05/22 01:41:41;;;;;;;2.00;1.20;;;;;;;14.61;57.19;99492.62;125596;1101;103054;-86
2021/05/22 01:44:10;;;;;;;4.70;1.40;;;;;;;14.61;57.78;99495.30;125303;1101;103006;-83
2021/05/22 01:46:40;;;;;;;2.70;0.90;;;;;;;14.58;57.75;99499.05;125547;1101;103051;-85
2021/05/22 01:49:10;;;;;;;2.00;1.20;;;;;;;14.58;57.79;99509.77;125264;1102;103070;-86
2021/05/22 01:51:40;;;;;;;3.70;1.80;;;;;;;14.54;58.02;99511.75;125338;1101;103161;-85
2021/05/22 01:54:10;;;;;;;14.65;1.80;;;;;;;14.53;58.34;99512.69;125168;1096;103062;-84
2021/05/22 01:56:38;;;;;;;3.13;2.13;;;;;;;14.51;58.51;99522.65;125510;1101;103051;-85
2021/05/22 01:59:05;;;;;;;1.83;1.30;;;;;;;14.46;58.77;99518.48;125405;1097;103216;-86
2021/05/22 02:01:32;;;;;;;1.87;1.67;;;;;;;14.44;58.98;99515.05;125423;1101;103004;-87
2021/05/22 02:04:05;;;;;;;2.70;1.20;;;;;;;14.45;58.99;99524.78;125451;1101;103230;-88
2021/05/22 02:06:41;;;;;;;1.40;1.20;;;;;;;14.43;59.49;99514.16;125325;1101;103205;-88
2021/05/22 02:09:08;;;;;;;2.43;1.47;;;;;;;14.45;59.22;99525.66;125335;1101;103266;-84
2021/05/22 02:11:39;;;;;;;2.43;1.48;;;;;;;14.42;59.81;99522.29;125274;1101;102883;-87
2021/05/22 02:14:08;;;;;;;2.20;1.55;;;;;;;14.30;60.10;99513.13;125362;1101;103115;-87
2021/05/22 02:16:42;;;;;;;3.75;1.55;;;;;;;14.27;60.26;99511.48;125434;1096;102996;-87
2021/05/22 02:19:11;;;;;;;2.58;1.60;;;;;;;14.28;60.51;99509.69;125187;1096;103157;-88
2021/05/22 02:21:41;;;;;;;3.70;1.63;;;;;;;14.29;60.82;99495.31;125442;1096;103081;-87
2021/05/22 02:24:15;;;;;;;3.23;1.95;;;;;;;14.27;60.87;99502.59;125405;1101;103096;-88
2021/05/22 02:26:42;;;;;;;4.48;1.95;;;;;;;14.23;61.02;99506.39;125506;1096;103742;-87
2021/05/22 02:29:14;;;;;;;2.88;1.75;;;;;;;14.21;61.24;99506.48;125506;1101;103056;-87
2021/05/22 02:31:48;;;;;;;3.13;1.50;;;;;;;14.23;61.47;99509.07;125459;1101;103066;-88
2021/05/22 02:34:18;;;;;;;3.75;1.70;;;;;;;14.21;61.61;99498.45;125596;1101;103083;-88
2021/05/22 02:36:50;;;;;;;2.50;1.93;;;;;;;14.12;61.79;99489.11;125450;1096;103837;-90
2021/05/22 02:39:17;;;;;;;2.95;1.50;;;;;;;14.11;62.34;99494.55;125772;1101;103047;-87
2021/05/22 02:41:46;;;;;;;2.20;1.77;;;;;;;14.05;62.18;99493.94;125435;1101;103083;-86
2021/05/22 02:44:16;;;;;;;1.73;1.60;;;;;;;14.06;62.27;99502.82;125472;1101;103083;-86
2021/05/22 02:46:45;;;;;;;2.20;2.00;;;;;;;14.07;62.49;99504.55;125505;1101;103103;-86
2021/05/22 02:49:17;;;;;;;3.17;2.30;;;;;;;14.07;62.38;99509.06;125668;1096;103208;-86
2021/05/22 02:51:49;;;;;;;4.08;1.98;;;;;;;14.08;62.37;99505.44;125834;1096;101910;-85
2021/05/22 02:54:19;;;;;;;2.40;1.73;;;;;;;14.04;63.12;99510.09;125975;1101;103053;-84
2021/05/22 02:57:00;;;;;;;4.75;2.10;;;;;;;13.97;62.87;99509.56;125543;1101;103128;-85
2021/05/22 02:59:42;;;;;;;7.58;1.85;;;;;;;14.01;63.26;99516.47;125930;1101;103097;-82
2021/05/22 03:02:14;;;;;;;2.17;1.97;;;;;;;14.04;62.92;99520.80;125662;1104;103164;-86
2021/05/22 03:04:47;;;;;;;2.35;2.08;;;;;;;14.04;63.26;99526.16;125679;1101;103055;-85
2021/05/22 03:07:28;;;;;;;2.33;2.10;;;;;;;13.99;63.36;99537.09;125671;1096;103019;-83
2021/05/22 03:09:55;;;;;;;1.83;1.63;;;;;;;13.97;63.64;99540.84;125912;1101;103027;-85
2021/05/22 03:12:25;;;;;;;2.65;2.00;;;;;;;13.96;63.74;99536.42;125215;1101;103317;-81
2021/05/22 03:14:53;;;;;;;2.90;2.10;;;;;;;13.90;63.98;99542.95;124626;1097;103219;-85
2021/05/22 03:17:21;;;;;;;2.98;1.93;;;;;;;13.90;64.10;99542.09;125474;1101;103112;-86
2021/05/22 03:19:49;;;;;;;9.95;2.83;;;;;;;13.91;64.12;99543.83;125293;1102;104192;-86
2021/05/22 03:22:16;;;;;;;3.57;2.97;;;;;;;13.91;64.02;99542.01;125597;1096;103110;-87
2021/05/22 03:24:44;;;;;;;3.63;1.95;;;;;;;13.96;64.02;99547.13;124920;1101;103062;-84
2021/05/22 03:27:25;;;;;;;10.23;2.55;;;;;;;13.95;64.18;99542.72;125864;1096;103000;-84
2021/05/22 03:29:56;;;;;;;2.80;2.17;;;;;;;13.95;64.26;99548.92;125203;1096;103228;-84
2021/05/22 03:32:24;;;;;;;2.33;2.05;;;;;;;13.92;64.62;99553.60;125820;1101;103204;-84
2021/05/22 03:34:53;;;;;;;3.05;2.40;;;;;;;13.93;64.32;99549.95;125617;1096;103052;-84
2021/05/22 03:37:20;;;;;;;4.25;1.83;;;;;;;13.94;64.16;99546.33;125817;1101;103059;-85
2021/05/22 03:39:47;;;;;;;1.50;1.40;;;;;;;13.96;64.27;99541.78;125543;1101;103078;-87
2021/05/22 03:42:15;;;;;;;5.33;1.98;;;;;;;13.96;64.12;99545.30;125978;1101;105536;-85
2021/05/22 03:44:43;;;;;;;3.53;2.40;;;;;;;13.98;64.39;99539.86;125837;1101;103208;-85
2021/05/22 03:47:11;;;;;;;2.48;1.60;;;;;;;14.05;64.13;99541.28;125587;1096;103304;-84
2021/05/22 03:49:43;;;;;;;2.80;2.13;;;;;;;14.15;63.54;99539.80;125634;1101;103078;-86
2021/05/22 03:52:11;;;;;;;2.23;1.77;;;;;;;14.25;63.57;99545.53;125764;1096;103157;-85
2021/05/22 03:54:39;;;;;;;2.73;1.47;;;;;;;14.23;63.18;99555.45;125660;1101;103052;-84
2021/05/22 03:57:09;;;;;;;2.58;2.30;;;;;;;14.14;63.62;99551.48;125912;1096;103055;-86
2021/05/22 03:59:36;;;;;;;2.43;2.23;;;;;;;14.17;63.42;99559.34;125749;1102;103094;-84
2021/05/22 04:02:03;;;;;;;3.90;1.80;;;;;;;14.27;63.47;99562.36;125997;1101;103526;-85
2021/05/22 04:04:32;;;;;;;5.63;2.07;;;;;;;14.31;63.65;99547.85;125651;1101;103069;-85
2021/05/22 04:06:59;;;;;;;2.20;1.93;;;;;;;14.31;63.58;99542.49;125607;1101;103133;-83
2021/05/22 04:09:32;;;;;;;1.90;1.70;;;;;;;14.26;63.36;99549.06;125997;1096;103080;-85
2021/05/22 04:12:03;;;;;;;2.60;1.95;;;;;;;14.21;63.26;99539.47;126047;1101;103048;-86
2021/05/22 04:14:30;;;;;;;3.63;1.50;;;;;;;14.27;62.88;99543.62;125565;1101;103101;-83
2021/05/22 04:17:15;;;;;;;4.13;2.40;;;;;;;14.32;62.80;99541.55;125563;1101;103003;-82
2021/05/22 04:19:44;;;;;;;2.13;1.93;;;;;;;14.38;63.00;99543.02;125825;1096;103054;-83
2021/05/22 04:22:11;;;;;;;3.87;1.93;;;;;;;14.42;62.53;99543.72;125928;1101;103190;-81
2021/05/22 04:24:45;;;;;;;1.70;1.60;;;;;;;14.41;62.52;99540.19;125822;1101;102043;-88
2021/05/22 04:27:13;;;;;;;1.57;1.40;;;;;;;14.38;62.79;99522.47;125944;1101;103085;-85
2021/05/22 04:29:40;;;;;;;1.90;1.73;;;;;;;14.43;62.25;99540.95;125567;1096;101932;-84
2021/05/22 04:32:08;;;;;;;2.57;1.67;;;;;;;14.47;62.01;99541.65;125734;1101;103064;-87
2021/05/22 04:34:35;;;;;;;1.43;1.33;;;;;;;14.56;62.00;99546.48;125632;1101;103088;-87
2021/05/22 04:37:03;;;;;;;3.27;1.73;;;;;;;14.62;61.68;99548.83;125520;1101;103051;-83
2021/05/22 04:39:30;;;;;;;3.70;1.70;;;;;;;14.62;61.78;99558.67;125044;1101;103116;-82
2021/05/22 04:41:58;;;;;;;1.50;1.40;;;;;;;14.55;61.62;99555.47;124957;1096;103079;-83
2021/05/22 04:44:25;;;;;;;3.13;1.75;;;;;;;14.55;61.65;99552.79;125535;1096;103609;-85
2021/05/22 04:46:52;;;;;;;1.98;1.33;;;;;;;14.57;61.76;99556.27;125387;1101;103055;-83
2021/05/22 04:49:20;;;;;;;4.07;1.57;;;;;;;14.59;61.82;99554.34;125419;1101;103049;-83
2021/05/22 04:51:48;;;;;;;3.55;1.50;;;;;;;14.62;61.84;99547.95;125386;1101;103445;-83
2021/05/22 04:54:17;;;;;;;2.63;1.30;;;;;;;14.65;62.52;99547.83;125472;1101;103087;-86
2021/05/22 04:56:44;;;;;;;1.65;1.40;;;;;;;14.67;62.11;99541.40;125962;1101;103048;-81
2021/05/22 04:59:11;;;;;;;1.47;1.30;;;;;;;14.65;62.10;99546.00;125068;1101;103057;-84
2021/05/22 05:01:40;;;;;;;1.17;1.07;;;;;;;14.65;61.92;99563.91;125263;1101;103076;-83
2021/05/22 05:04:08;;;;;;;1.50;1.30;;;;;;;14.70;62.02;99564.48;125309;1096;103001;-85
2021/05/22 05:06:50;;;;;;;2.15;1.28;;;;;;;14.73;61.80;99569.69;125386;1101;103127;-82
2021/05/22 05:09:17;;;;;;;1.53;1.10;;;;;;;14.77;61.83;99581.96;125542;1101;103197;-85
2021/05/22 05:12:01;;;;;;;1.80;1.30;;;;;;;14.79;62.00;99574.68;125132;1104;103248;-82
2021/05/22 05:14:29;;;;;;;5.57;1.50;;;;;;;14.79;61.79;99572.00;125150;1104;103070;-85
2021/05/22 05:16:57;;;;;;;1.90;1.55;;;;;;;14.87;61.61;99568.88;125429;1096;103118;-88
2021/05/22 05:19:27;;;;;;;4.60;1.30;;;;;;;14.96;61.46;99559.45;125546;1096;103222;-84
2021/05/22 05:21:55;;;;;;;1.65;1.48;;;;;;;14.98;61.26;99545.02;125527;1096;103252;-84
2021/05/22 05:24:22;;;;;;;15.65;1.93;;;;;;;15.05;61.29;99548.20;125281;1104;103035;-85
2021/05/22 05:26:50;;;;;;;2.67;1.83;;;;;;;15.10;60.94;99543.44;126247;1101;101957;-85
2021/05/22 05:29:17;;;;;;;2.13;1.33;;;;;;;15.14;60.48;99541.41;125347;1102;103090;-84
2021/05/22 05:31:45;;;;;;;1.40;1.30;;;;;;;15.21;60.52;99535.59;125318;1096;103099;-82
2021/05/22 05:34:13;;;;;;;2.03;1.37;;;;;;;15.26;60.08;99542.50;125607;1096;103009;-84
2021/05/22 05:36:40;;;;;;;5.35;2.00;;;;;;;15.38;60.38;99539.08;125532;1101;103309;-85
2021/05/22 05:39:10;;;;;;;3.20;1.03;;;;;;;15.53;59.27;99542.68;125571;1096;103179;-86
2021/05/22 05:41:37;;;;;;;1.40;1.20;;;;;;;15.67;59.46;99536.45;125192;1096;103061;-85
2021/05/22 05:44:08;;;;;;;1.17;1.03;;;;;;;15.78;59.20;99543.84;125319;1096;103078;-86
2021/05/22 05:46:36;;;;;;;3.17;1.50;;;;;;;15.81;59.15;99532.97;125473;1101;103046;-84
2021/05/22 05:49:04;;;;;;;2.50;2.00;;;;;;;15.84;59.36;99540.82;125352;1096;103075;-88
2021/05/22 05:51:31;;;;;;;2.00;0.90;;;;;;;15.82;58.29;99537.35;125417;1101;103059;-83
2021/05/22 05:53:59;;;;;;;1.30;1.20;;;;;;;15.68;58.36;99539.04;125519;1096;103056;-81
2021/05/22 05:56:26;;;;;;;1.30;1.00;;;;;;;15.59;58.72;99544.97;125172;1101;103117;-83
2021/05/22 05:58:53;;;;;;;1.40;1.10;;;;;;;15.55;58.55;99547.00;125592;1101;103222;-90
2021/05/22 06:01:20;;;;;;;1.30;1.03;;;;;;;15.60;58.71;99545.85;125359;1104;103088;-91
2021/05/22 06:03:48;;;;;;;1.70;1.07;;;;;;;15.64;58.12;99547.39;125467;1096;103117;-85
2021/05/22 06:06:16;;;;;;;1.90;1.10;;;;;;;15.68;57.91;99551.61;125565;1101;103119;-85
2021/05/22 06:08:43;;;;;;;2.63;1.00;;;;;;;15.66;57.85;99543.66;125575;1101;103215;-88
2021/05/22 06:11:13;;;;;;;2.98;1.20;;;;;;;15.71;57.79;99546.92;125666;1101;103169;-84
2021/05/22 06:13:42;;;;;;;3.13;1.20;;;;;;;15.74;57.63;99542.31;125434;1101;103115;-83
2021/05/22 06:16:30;;;;;;;4.70;1.48;;;;;;;15.78;57.09;99546.53;125210;1101;103052;-82
2021/05/22 06:19:11;;;;;;;1.63;1.10;;;;;;;15.77;57.71;99536.73;125393;1096;102926;-82
2021/05/22 06:21:41;;;;;;;4.20;1.40;;;;;;;15.83;58.01;99539.09;125091;1101;103037;-82
2021/05/22 06:24:09;;;;;;;1.47;1.13;;;;;;;15.94;57.64;99557.21;124960;1101;103201;-81
2021/05/22 06:26:37;;;;;;;1.50;0.85;;;;;;;15.99;57.45;99549.73;124794;1101;103211;-83
2021/05/22 06:29:04;;;;;;;2.00;1.20;;;;;;;15.97;57.39;99546.30;125227;1101;103082;-88
2021/05/22 06:31:45;;;;;;;2.50;1.43;;;;;;;16.02;57.19;99549.53;125305;1096;103083;-80
2021/05/22 06:34:13;;;;;;;1.95;1.20;;;;;;;16.09;57.39;99540.16;125572;1101;103148;-89
2021/05/22 06:36:41;;;;;;;3.60;1.55;;;;;;;16.20;57.18;99556.44;125506;1096;103119;-84
2021/05/22 06:39:08;;;;;;;1.80;0.98;;;;;;;16.21;56.44;99568.92;125620;1101;101845;-81
2021/05/22 06:41:36;;;;;;;1.90;1.40;;;;;;;16.25;57.17;99564.22;125361;1096;103088;-88
2021/05/22 06:44:11;;;;;;;1.93;1.20;;;;;;;16.36;57.30;99571.59;125215;1101;103708;-82
2021/05/22 06:49:06;;;;;;;19.33;13.88;;;;;;;16.38;56.50;99553.53;125298;1101;103170;-81
2021/05/22 06:51:33;;;;;;;2.88;1.60;;;;;;;16.39;56.81;99557.95;125349;1101;103779;-82
2021/05/22 06:54:01;;;;;;;2.83;1.10;;;;;;;16.44;55.91;99536.17;125384;1096;103106;-84
2021/05/22 06:56:28;;;;;;;1.50;1.00;;;;;;;16.51;56.06;99553.62;125402;1101;103051;-87
2021/05/22 06:58:56;;;;;;;2.30;1.60;;;;;;;16.53;55.73;99560.63;125400;1101;103240;-81
2021/05/22 07:01:23;;;;;;;2.03;1.13;;;;;;;16.58;55.62;99565.72;125096;1101;103072;-82
2021/05/22 07:03:51;;;;;;;2.07;1.10;;;;;;;16.64;55.65;99567.98;125394;1101;102188;-81
2021/05/22 07:06:18;;;;;;;2.40;1.40;;;;;;;16.66;56.03;99559.81;125014;1101;103149;-84
2021/05/22 07:08:46;;;;;;;1.67;1.23;;;;;;;16.71;55.60;99555.89;125458;1096;103145;-83
2021/05/22 07:11:14;;;;;;;1.40;1.20;;;;;;;16.70;55.24;99553.27;125444;1101;103054;-83
2021/05/22 07:13:41;;;;;;;1.40;1.25;;;;;;;16.69;55.90;99557.80;125288;1101;103215;-81
2021/05/22 07:16:08;;;;;;;1.45;1.13;;;;;;;16.66;55.43;99559.81;125328;1096;103192;-79
2021/05/22 07:18:35;;;;;;;1.78;1.10;;;;;;;16.65;54.99;99558.97;124901;1101;103610;-81
2021/05/22 07:21:03;;;;;;;2.15;1.05;;;;;;;16.61;55.76;99568.20;125360;1096;103055;-87
2021/05/22 07:23:31;;;;;;;1.88;1.08;;;;;;;16.65;55.98;99560.80;125175;1097;103110;-84
2021/05/22 07:25:59;;;;;;;1.67;1.37;;;;;;;16.64;56.40;99551.86;125103;1101;103073;-83
2021/05/22 07:28:26;;;;;;;3.33;1.25;;;;;;;16.58;56.26;99559.45;124809;1097;103226;-81
2021/05/22 07:30:54;;;;;;;1.33;1.23;;;;;;;16.58;55.63;99548.70;125119;1101;103741;-80
2021/05/22 07:33:21;;;;;;;2.88;0.83;;;;;;;16.55;56.36;99547.08;124472;1101;103150;-79
2021/05/22 07:35:48;;;;;;;1.43;1.30;;;;;;;16.58;55.74;99551.39;124752;1096;103073;-82
2021/05/22 07:38:16;;;;;;;2.40;1.20;;;;;;;16.65;55.96;99550.05;125621;1101;103051;-84
2021/05/22 07:40:43;;;;;;;1.73;1.03;;;;;;;16.71;55.68;99550.51;125544;1101;103101;-83
2021/05/22 07:43:11;;;;;;;1.83;1.15;;;;;;;16.76;55.29;99547.50;125583;1101;103150;-85
2021/05/22 07:45:38;;;;;;;3.10;1.40;;;;;;;16.85;55.67;99544.20;125460;1101;103530;-86
2021/05/22 07:48:06;;;;;;;1.50;1.23;;;;;;;16.98;56.44;99535.34;125432;1096;103054;-85
2021/05/22 07:50:35;;;;;;;1.60;1.20;;;;;;;17.03;55.22;99543.97;125468;1096;102999;-77
2021/05/22 07:53:04;;;;;;;2.30;1.37;;;;;;;16.94;55.05;99537.41;124775;1101;103081;-84
2021/05/22 07:55:31;;;;;;;2.20;1.30;;;;;;;16.97;55.40;99539.88;125299;1097;102990;-80
2021/05/22 07:57:59;;;;;;;2.28;1.65;;;;;;;16.98;54.73;99546.11;124956;1096;103049;-78
2021/05/22 08:00:26;;;;;;;1.40;1.20;;;;;;;16.95;54.98;99543.63;124580;1096;103161;-82
2021/05/22 08:03:07;;;;;;;2.40;1.20;;;;;;;16.94;54.50;99544.59;124940;1104;103197;-84
2021/05/22 08:05:34;;;;;;;1.30;1.20;;;;;;;16.90;54.80;99543.95;124652;1099;103112;-79
2021/05/22 08:08:02;;;;;;;1.70;1.50;;;;;;;16.87;55.54;99550.36;124865;1101;103057;-85
2021/05/22 08:10:30;;;;;;;3.67;1.43;;;;;;;16.90;55.25;99554.71;125106;1096;103065;-78
2021/05/22 08:13:12;;;;;;;2.25;1.45;;;;;;;16.82;55.07;99560.55;124466;1104;103214;-77
2021/05/22 08:15:53;;;;;;;1.23;1.10;;;;;;;16.83;55.23;99556.91;124670;1105;103183;-84
2021/05/22 08:18:21;;;;;;;3.63;1.70;;;;;;;16.91;55.63;99547.49;125574;1096;103336;-84
2021/05/22 08:20:49;;;;;;;1.70;1.25;;;;;;;16.92;55.33;99543.84;125641;1101;103151;-79
2021/05/22 08:23:17;;;;;;;2.03;1.10;;;;;;;16.88;55.43;99545.83;124726;1104;103113;-83
2021/05/22 08:25:44;;;;;;;1.43;1.18;;;;;;;16.84;55.80;99557.77;125382;1096;103212;-80
2021/05/22 08:28:32;;;;;;;3.20;1.43;;;;;;;16.75;54.96;99559.22;125068;1101;103063;-81
2021/05/22 08:31:00;;;;;;;5.28;3.68;;;;;;;16.72;55.94;99562.12;125158;1104;103221;-79
2021/05/22 08:33:27;;;;;;;2.48;1.20;;;;;;;16.74;57.10;99570.08;125318;1101;103083;-81
2021/05/22 08:35:55;;;;;;;10.83;7.27;;;;;;;16.69;57.86;99563.17;125110;1101;103336;-80
2021/05/22 08:38:22;;;;;;;6.27;1.20;;;;;;;16.66;58.24;99559.81;124859;1095;103154;-80
2021/05/22 08:40:49;;;;;;;2.97;1.20;;;;;;;16.64;58.69;99546.48;124995;1102;103054;-83
2021/05/22 08:43:30;;;;;;;2.53;1.30;;;;;;;16.68;58.52;99563.28;125525;1101;103170;-79
2021/05/22 08:45:59;;;;;;;4.83;1.90;;;;;;;16.60;58.89;99563.77;125166;1102;103240;-83
2021/05/22 08:48:27;;;;;;;3.13;2.10;;;;;;;16.60;59.67;99561.09;125524;1101;103220;-82
2021/05/22 08:50:54;;;;;;;4.18;2.25;;;;;;;16.62;60.22;99560.98;125414;1101;103208;-79
2021/05/22 08:53:22;;;;;;;5.20;2.73;;;;;;;16.60;60.76;99558.40;124950;1101;103006;-81
2021/05/22 08:55:50;;;;;;;3.20;2.10;;;;;;;16.54;60.94;99567.73;124450;1096;103138;-80
2021/05/22 08:58:17;;;;;;;5.88;2.70;;;;;;;16.48;61.35;99565.42;125650;1101;103221;-78
2021/05/22 09:00:46;;;;;;;4.03;2.30;;;;;;;16.48;61.55;99560.05;124987;1096;103166;-80
2021/05/22 09:03:14;;;;;;;2.93;2.50;;;;;;;16.44;61.71;99563.05;124995;1101;103231;-80
2021/05/22 09:05:42;;;;;;;4.90;1.95;;;;;;;16.37;62.82;99565.27;125556;1101;103176;-81
2021/05/22 09:08:17;;;;;;;3.00;2.00;;;;;;;16.26;62.92;99557.89;125264;1101;103054;-80
2021/05/22 09:10:47;;;;;;;3.15;2.33;;;;;;;16.26;64.41;99565.07;125305;1101;103100;-83
2021/05/22 09:13:26;;;;;;;6.07;2.60;;;;;;;16.28;65.45;99564.02;125614;1101;103091;-84
2021/05/22 09:15:59;;;;;;;2.53;2.13;;;;;;;16.25;65.03;99561.53;125438;1101;103057;-82
2021/05/22 09:18:38;;;;;;;4.00;2.83;;;;;;;16.16;64.60;99559.43;124790;1101;103165;-80
2021/05/22 09:21:09;;;;;;;19.97;14.83;;;;;;;16.04;65.29;99567.28;124737;1101;103142;-81
2021/05/22 09:23:39;;;;;;;1.83;1.73;;;;;;;16.00;66.04;99564.91;124625;1096;103531;-81
2021/05/22 09:26:14;;;;;;;3.70;2.03;;;;;;;16.00;66.04;99570.27;125311;1101;103049;-80
2021/05/22 09:28:48;;;;;;;4.55;2.20;;;;;;;16.02;67.00;99576.39;125049;1096;103227;-81
2021/05/22 09:31:18;;;;;;;3.40;2.13;;;;;;;15.99;66.82;99564.02;124283;1096;103164;-79
2021/05/22 09:33:47;;;;;;;3.27;1.90;;;;;;;15.90;67.53;99569.11;124819;1096;103212;-79
2021/05/22 09:36:17;;;;;;;3.83;2.38;;;;;;;15.83;67.38;99565.94;124501;1096;103680;-81
2021/05/22 09:38:50;;;;;;;2.48;1.55;;;;;;;15.82;67.08;99567.77;124823;1101;103149;-81
2021/05/22 09:41:31;;;;;;;4.33;2.37;;;;;;;15.83;67.13;99566.82;124308;1101;103097;-81
2021/05/22 09:44:14;;;;;;;3.50;2.23;;;;;;;15.89;68.04;99568.25;124228;1096;103198;-80
2021/05/22 09:46:45;;;;;;;2.60;1.30;;;;;;;15.83;66.96;99579.36;124203;1097;103247;-79
2021/05/22 09:49:23;;;;;;;1.73;1.10;;;;;;;15.72;67.37;99569.25;124316;1104;103026;-79
2021/05/22 09:51:57;;;;;;;2.98;1.43;;;;;;;15.83;67.44;99569.50;124605;1101;103092;-81
2021/05/22 09:54:58;;;;;;;2.90;1.40;;;;;;;15.88;67.56;99572.74;124380;1102;103144;-80
2021/05/22 09:57:38;;;;;;;2.47;1.90;;;;;;;15.76;68.71;99576.16;124367;1104;103177;-78
2021/05/22 10:00:13;;;;;;;3.67;1.83;;;;;;;15.83;69.10;99564.14;125385;1104;104218;-79
2021/05/22 10:03:01;;;;;;;2.87;1.80;;;;;;;15.93;69.07;99563.53;124428;1104;103160;-79
2021/05/22 10:05:34;;;;;;;4.87;2.00;;;;;;;15.87;68.52;99570.16;124377;1096;103108;-79
2021/05/22 10:08:03;;;;;;;3.70;3.13;;;;;;;15.79;68.80;99562.53;124801;1104;103087;-79
2021/05/22 10:10:51;;;;;;;6.60;2.90;;;;;;;15.71;69.12;99562.15;124814;1097;103005;-79
2021/05/22 10:13:20;;;;;;;2.83;2.50;;;;;;;15.75;69.59;99565.52;125226;1096;103080;-78
2021/05/22 10:15:54;;;;;;;4.67;2.40;;;;;;;15.62;69.56;99557.34;125010;1104;103168;-78
2021/05/22 10:18:24;;;;;;;8.13;3.33;;;;;;;15.57;70.27;99552.27;125097;1102;101928;-80
2021/05/22 10:20:54;;;;;;;9.20;2.93;;;;;;;15.52;70.20;99555.22;125210;1103;103125;-79
2021/05/22 10:23:23;;;;;;;4.07;2.60;;;;;;;15.54;70.27;99552.43;124977;1104;103030;-78
2021/05/22 10:25:52;;;;;;;4.87;3.00;;;;;;;15.58;70.56;99548.63;124867;1104;103145;-79
2021/05/22 10:28:33;;;;;;;3.50;3.20;;;;;;;15.71;70.05;99551.41;124935;1104;103045;-79
2021/05/22 10:31:00;;;;;;;2.10;1.90;;;;;;;15.71;70.93;99549.61;125075;1101;103169;-80
2021/05/22 10:33:35;;;;;;;2.93;2.63;;;;;;;15.71;70.33;99544.24;125553;1104;102989;-80
2021/05/22 10:36:04;;;;;;;2.70;2.25;;;;;;;15.67;70.77;99534.66;125415;1104;103097;-81
2021/05/22 10:38:34;;;;;;;3.23;2.60;;;;;;;15.64;71.44;99542.88;125514;1096;103016;-78
2021/05/22 10:41:12;;;;;;;3.17;2.60;;;;;;;15.74;71.54;99532.45;125499;1096;103094;-78
2021/05/22 10:44:00;;;;;;;5.45;2.93;;;;;;;15.74;71.16;99529.77;125146;1101;103159;-80
2021/05/22 10:46:28;;;;;;;3.15;2.73;;;;;;;15.76;71.45;99529.67;125677;1101;103051;-81
2021/05/22 10:49:09;;;;;;;3.23;2.93;;;;;;;15.83;71.96;99531.91;125623;1101;103093;-80
2021/05/22 10:51:37;;;;;;;5.80;3.70;;;;;;;15.71;71.70;99522.77;125685;1102;103408;-80
2021/05/22 10:54:16;;;;;;;4.93;3.60;;;;;;;15.69;71.35;99521.98;126280;1096;103601;-79
2021/05/22 10:57:07;;;;;;;5.13;3.60;;;;;;;15.74;72.13;99516.34;125482;1103;103256;-80
2021/05/22 11:00:13;;;;;;;5.47;3.07;;;;;;;15.72;72.33;99516.41;125235;1099;103033;-81
2021/05/22 11:02:47;;;;;;;4.07;2.80;;;;;;;15.60;72.07;99516.33;125403;1104;103393;-81
2021/05/22 11:05:25;;;;;;;3.33;3.03;;;;;;;15.46;72.55;99509.98;125832;1096;103085;-83
2021/05/22 11:08:08;;;;;;;12.85;7.53;;;;;;;15.46;72.71;99506.42;125965;1102;103099;-83
2021/05/22 11:11:01;;;;;;;5.13;3.00;;;;;;;15.54;72.86;99499.64;126060;1101;103400;-81
2021/05/22 11:13:43;;;;;;;4.40;2.97;;;;;;;15.45;72.30;99497.52;125988;1101;103086;-84
2021/05/22 11:16:34;;;;;;;3.98;3.30;;;;;;;15.58;73.21;99497.64;125947;1101;104090;-83
2021/05/22 11:19:15;;;;;;;5.63;3.00;;;;;;;15.66;71.76;99491.77;125869;1101;103074;-83
2021/05/22 11:22:15;;;;;;;5.05;3.60;;;;;;;15.66;71.61;99486.41;125790;1104;103460;-88
2021/05/22 11:25:02;;;;;;;3.78;2.48;;;;;;;15.49;72.04;99482.95;125033;1104;103122;-84
2021/05/22 11:27:53;;;;;;;3.10;2.10;;;;;;;15.57;71.59;99471.75;125232;1104;103084;-84
2021/05/22 11:30:35;;;;;;;6.13;2.63;;;;;;;15.48;71.52;99472.32;125715;1104;103081;-82
2021/05/22 11:33:08;;;;;;;2.90;2.13;;;;;;;15.33;71.48;99468.77;125701;1104;103355;-84
2021/05/22 11:35:43;;;;;;;3.07;2.67;;;;;;;15.23;71.91;99462.23;125685;1104;102067;-85
2021/05/22 11:38:15;;;;;;;2.85;2.33;;;;;;;15.29;72.52;99464.55;125918;1104;103265;-87